Time;durP1;ratioP1;P1;durP2;ratioP2;P2;SDS_P1;SDS_P2;PMS_P1;PMS_P2;Temp;Humidity;BMP_temperature;BMP_pressure;BME280_temperature;BME280_humidity;BME280_pressure;Samples;Min_cycle;Max_cycle;Signal;HPM_P1;HPM_P2
2022/12/23 00:00:41;;;;;;;2.70;1.60;;;10.70;99.90;;;;;;5014117;28;20448;-76
2022/12/23 00:03:28;;;;;;;3.03;1.67;;;10.60;99.90;;;;;;5008938;28;20454;-75
2022/12/23 00:06:16;;;;;;;4.10;1.73;;;10.70;99.90;;;;;;5005203;28;20488;-76
2022/12/23 00:09:03;;;;;;;4.13;1.27;;;10.70;99.90;;;;;;5009572;28;20448;-76
2022/12/23 00:17:58;;;;;;;3.00;1.27;;;10.60;99.90;;;;;;5006486;28;20441;-76
2022/12/23 00:20:44;;;;;;;3.07;1.57;;;10.60;99.90;;;;;;5008540;28;20496;-76
2022/12/23 00:23:32;;;;;;;3.23;1.40;;;10.70;99.90;;;;;;5011798;28;20657;-76
2022/12/23 00:26:23;;;;;;;5.10;2.17;;;10.70;99.90;;;;;;5010143;28;20492;-76
2022/12/23 00:29:09;;;;;;;4.13;1.50;;;10.70;99.90;;;;;;5008480;28;20529;-76
2022/12/23 00:31:54;;;;;;;1.90;1.10;;;10.80;99.90;;;;;;5010912;28;20850;-75
2022/12/23 00:34:40;;;;;;;1.93;1.07;;;10.80;99.90;;;;;;5007096;28;20835;-75
2022/12/23 00:37:26;;;;;;;2.07;1.03;;;10.70;99.90;;;;;;5004713;28;20458;-75
2022/12/23 00:43:18;;;;;;;2.07;1.10;;;10.70;99.90;;;;;;5008569;28;20504;-76
2022/12/23 00:46:03;;;;;;;2.23;0.90;;;10.70;99.90;;;;;;5001518;28;20481;-76
2022/12/23 00:51:52;;;;;;;3.77;1.70;;;10.70;99.90;;;;;;4999060;28;20403;-76
2022/12/23 00:54:38;;;;;;;2.63;0.90;;;10.70;99.90;;;;;;5005344;28;20552;-76
2022/12/23 00:57:23;;;;;;;4.57;1.43;;;10.70;99.90;;;;;;5006773;28;20808;-76
2022/12/23 01:00:12;;;;;;;3.07;1.40;;;10.80;99.90;;;;;;5012018;28;20461;-76
2022/12/23 01:06:02;;;;;;;5.87;1.30;;;10.80;99.90;;;;;;5006040;28;21005;-76
2022/12/23 01:08:48;;;;;;;2.17;1.23;;;10.90;99.90;;;;;;5012370;28;21054;-76
2022/12/23 01:11:34;;;;;;;6.70;2.30;;;10.90;99.90;;;;;;5013504;28;20969;-76
2022/12/23 01:14:20;;;;;;;3.47;1.50;;;10.90;99.90;;;;;;5007013;28;20461;-76
2022/12/23 01:17:08;;;;;;;4.60;3.07;;;10.90;99.90;;;;;;5001438;28;20445;-76
2022/12/23 01:19:53;;;;;;;5.17;1.57;;;10.90;99.90;;;;;;5000652;28;20453;-76
2022/12/23 01:22:39;;;;;;;3.13;1.33;;;10.80;99.90;;;;;;5009421;28;20464;-76
2022/12/23 01:25:25;;;;;;;2.23;1.47;;;10.80;99.90;;;;;;5002392;28;20532;-76
2022/12/23 01:28:11;;;;;;;2.37;1.73;;;10.80;99.90;;;;;;5003936;28;20446;-76
2022/12/23 01:30:57;;;;;;;4.17;1.97;;;10.80;99.90;;;;;;5006494;28;20445;-76
2022/12/23 01:33:44;;;;;;;8.90;2.47;;;10.80;99.90;;;;;;5012116;28;20452;-76
2022/12/23 01:36:30;;;;;;;5.73;1.80;;;10.80;99.90;;;;;;5013873;28;20524;-76
2022/12/23 01:39:16;;;;;;;5.53;1.73;;;10.80;99.90;;;;;;5012952;28;20519;-76
2022/12/23 01:45:13;;;;;;;3.13;1.77;;;11.00;99.90;;;;;;4998693;28;21004;-76
2022/12/23 01:48:04;;;;;;;3.23;1.53;;;11.00;99.90;;;;;;5007947;28;20804;-76
2022/12/23 01:50:54;;;;;;;6.60;2.53;;;11.00;99.90;;;;;;5003690;28;20957;-76
2022/12/23 01:53:45;;;;;;;4.43;1.50;;;11.00;99.90;;;;;;5004172;28;20450;-76
2022/12/23 01:56:36;;;;;;;5.70;1.60;;;11.00;99.90;;;;;;5042098;22;21037;-73
2022/12/23 02:05:25;;;;;;;2.67;1.60;;;11.20;99.90;;;;;;5030503;28;20514;-73
2022/12/23 02:11:34;;;;;;;3.30;3.00;;;11.10;99.90;;;;;;5034561;28;20429;-73
2022/12/23 02:17:55;;;;;;;4.83;3.70;;;11.20;99.90;;;;;;4958547;28;20443;-73
2022/12/23 02:21:12;;;;;;;3.97;3.57;;;11.10;99.90;;;;;;5021609;28;20531;-73
2022/12/23 02:24:49;;;;;;;8.30;3.97;;;11.10;99.90;;;;;;5025614;28;20536;-73
2022/12/23 02:27:48;;;;;;;5.77;4.70;;;11.20;99.90;;;;;;4946050;29;20440;-73
2022/12/23 02:30:44;;;;;;;7.93;4.10;;;11.20;99.90;;;;;;4951865;29;20455;-74
2022/12/23 02:33:49;;;;;;;7.00;4.70;;;11.20;99.90;;;;;;5022074;28;20520;-74
2022/12/23 02:36:39;;;;;;;4.63;3.93;;;11.20;99.90;;;;;;5034641;28;20584;-73
2022/12/23 02:39:33;;;;;;;7.87;5.00;;;11.20;99.90;;;;;;5036921;28;20425;-73
2022/12/23 02:42:23;;;;;;;7.43;4.73;;;11.20;99.90;;;;;;5036574;28;20530;-73
2022/12/23 02:45:13;;;;;;;8.83;3.80;;;11.30;99.90;;;;;;5030454;28;20592;-74
2022/12/23 02:48:07;;;;;;;6.40;4.33;;;11.30;99.90;;;;;;5037544;28;20484;-73
2022/12/23 02:50:54;;;;;;;8.40;5.40;;;11.30;99.90;;;;;;5035216;28;20453;-73
2022/12/23 02:53:45;;;;;;;5.37;4.50;;;11.40;99.90;;;;;;5026782;28;20945;-73
2022/12/23 02:56:32;;;;;;;7.27;5.17;;;11.30;99.90;;;;;;5041783;28;20451;-74
2022/12/23 02:59:21;;;;;;;7.00;6.30;;;11.30;99.90;;;;;;5032793;28;20456;-73
2022/12/23 03:02:07;;;;;;;8.17;6.00;;;11.40;99.90;;;;;;5031265;28;20472;-73
2022/12/23 03:04:54;;;;;;;7.40;6.30;;;11.40;99.90;;;;;;5029101;28;20464;-73
2022/12/23 03:07:42;;;;;;;8.23;6.23;;;11.40;99.90;;;;;;5031719;28;20440;-73
2022/12/23 03:10:41;;;;;;;13.00;7.43;;;11.30;99.90;;;;;;5035834;28;21001;-73
2022/12/23 03:13:38;;;;;;;8.93;7.10;;;11.40;99.90;;;;;;5022964;28;20428;-73
2022/12/23 03:16:27;;;;;;;7.07;6.37;;;11.40;99.90;;;;;;5032892;28;20464;-73
2022/12/23 03:19:24;;;;;;;7.10;6.40;;;11.40;99.90;;;;;;5028983;28;20450;-73
2022/12/23 03:22:19;;;;;;;12.90;5.80;;;11.40;99.90;;;;;;5024942;28;20460;-73
2022/12/23 03:25:11;;;;;;;7.03;6.10;;;11.50;99.90;;;;;;5027391;28;20557;-74
2022/12/23 03:28:03;;;;;;;6.43;5.80;;;11.40;99.90;;;;;;5039221;28;20441;-73
2022/12/23 03:30:53;;;;;;;6.40;5.73;;;11.40;99.90;;;;;;5036203;28;20448;-73
2022/12/23 03:33:43;;;;;;;7.80;6.83;;;11.40;99.90;;;;;;5026517;28;20426;-73
2022/12/23 03:36:33;;;;;;;10.23;6.10;;;11.40;99.90;;;;;;5030728;28;20480;-73
2022/12/23 03:39:24;;;;;;;8.17;6.57;;;11.40;99.90;;;;;;5030688;28;20819;-73
2022/12/23 03:42:14;;;;;;;7.37;6.20;;;11.30;99.90;;;;;;5026117;28;20997;-73
2022/12/23 03:45:05;;;;;;;6.80;6.10;;;11.40;99.90;;;;;;5027475;28;20471;-73
2022/12/23 03:47:54;;;;;;;11.40;6.37;;;11.40;99.90;;;;;;5037496;28;20445;-73
2022/12/23 03:50:41;;;;;;;7.87;5.80;;;11.40;99.90;;;;;;5030390;28;20437;-73
2022/12/23 03:53:32;;;;;;;6.60;5.90;;;11.40;99.90;;;;;;5025644;28;20542;-73
2022/12/23 03:56:33;;;;;;;8.00;7.07;;;11.40;99.90;;;;;;5029548;28;20456;-73
2022/12/23 03:59:21;;;;;;;8.80;7.87;;;11.30;99.90;;;;;;5027482;28;20560;-73
2022/12/23 04:02:11;;;;;;;12.80;8.67;;;11.30;99.90;;;;;;5019373;28;20826;-73
2022/12/23 04:05:13;;;;;;;8.50;7.70;;;11.30;99.90;;;;;;5029005;28;20464;-73
2022/12/23 04:08:05;;;;;;;7.70;7.00;;;11.40;99.90;;;;;;5026450;28;20444;-73
2022/12/23 04:10:50;;;;;;;8.40;7.63;;;11.40;99.90;;;;;;5034873;28;20441;-73
2022/12/23 04:13:38;;;;;;;9.17;7.60;;;11.40;99.90;;;;;;5028278;28;20427;-74
2022/12/23 04:16:23;;;;;;;10.37;7.43;;;11.30;99.90;;;;;;5028947;28;20460;-73
2022/12/23 04:19:09;;;;;;;9.77;6.80;;;11.30;99.90;;;;;;5033694;28;21011;-73
2022/12/23 04:21:56;;;;;;;8.87;7.00;;;11.30;99.90;;;;;;5025408;28;21005;-73
2022/12/23 04:24:42;;;;;;;7.30;6.57;;;11.30;99.90;;;;;;5028972;28;20522;-73
2022/12/23 04:27:28;;;;;;;6.73;6.00;;;11.40;99.90;;;;;;5027827;28;20468;-74
2022/12/23 04:30:16;;;;;;;8.27;5.57;;;11.30;99.90;;;;;;5037429;28;20490;-73
2022/12/23 04:33:02;;;;;;;7.40;5.50;;;11.40;99.90;;;;;;5022318;28;20468;-73
2022/12/23 04:35:48;;;;;;;8.17;6.20;;;11.40;99.90;;;;;;5034825;28;20592;-73
2022/12/23 04:38:33;;;;;;;8.17;6.20;;;11.40;99.90;;;;;;5035035;28;20972;-73
2022/12/23 04:41:19;;;;;;;7.80;6.53;;;11.40;99.90;;;;;;5025979;28;20894;-73
2022/12/23 04:44:05;;;;;;;9.73;6.27;;;11.40;99.90;;;;;;5035527;28;20454;-73
2022/12/23 04:46:52;;;;;;;10.30;6.70;;;11.40;99.90;;;;;;5031768;28;20476;-73
2022/12/23 04:49:38;;;;;;;7.47;6.73;;;11.30;99.90;;;;;;5034322;28;20451;-73
2022/12/23 04:52:24;;;;;;;11.80;6.60;;;11.30;99.90;;;;;;5026973;28;20936;-73
2022/12/23 04:55:10;;;;;;;8.13;6.97;;;11.30;99.90;;;;;;5030649;28;20468;-73
2022/12/23 04:57:56;;;;;;;7.87;6.93;;;11.20;99.90;;;;;;5027249;28;20428;-73
2022/12/23 05:00:41;;;;;;;7.03;6.13;;;11.20;99.90;;;;;;5026888;28;20961;-73
2022/12/23 05:03:28;;;;;;;6.73;6.13;;;11.20;99.90;;;;;;5032223;28;20527;-73
2022/12/23 05:06:14;;;;;;;12.53;8.10;;;11.10;99.90;;;;;;5031831;28;20521;-73
2022/12/23 05:09:00;;;;;;;11.13;7.80;;;11.00;99.90;;;;;;5036472;28;20487;-74
2022/12/23 05:11:46;;;;;;;14.07;6.80;;;11.10;99.90;;;;;;5024741;28;20515;-74
2022/12/23 05:14:31;;;;;;;8.80;6.50;;;11.00;99.90;;;;;;5026736;28;20452;-73
2022/12/23 05:17:17;;;;;;;6.90;5.97;;;11.00;99.90;;;;;;5034497;28;20463;-73
2022/12/23 05:20:04;;;;;;;6.77;6.07;;;10.90;99.90;;;;;;5021546;28;20452;-73
2022/12/23 05:22:50;;;;;;;9.03;6.50;;;10.80;99.90;;;;;;5033527;28;20451;-73
2022/12/23 05:25:37;;;;;;;7.93;6.00;;;10.80;99.90;;;;;;5032801;28;20463;-73
2022/12/23 05:28:23;;;;;;;9.43;6.67;;;10.80;99.90;;;;;;5035286;28;20556;-74
2022/12/23 05:31:10;;;;;;;12.93;7.53;;;10.70;99.90;;;;;;5018411;28;20583;-73
2022/12/23 05:33:56;;;;;;;7.90;7.10;;;10.70;99.90;;;;;;5031505;28;20491;-73
2022/12/23 05:36:43;;;;;;;11.13;6.87;;;10.60;99.90;;;;;;5032990;28;20538;-73
2022/12/23 05:39:28;;;;;;;11.90;7.87;;;10.50;99.90;;;;;;5032498;28;20544;-73
2022/12/23 05:42:18;;;;;;;8.90;6.57;;;10.60;99.90;;;;;;5027068;28;20814;-74
2022/12/23 05:45:04;;;;;;;8.00;6.60;;;10.50;99.90;;;;;;5030729;28;20466;-73
2022/12/23 05:47:49;;;;;;;10.80;6.10;;;10.60;99.90;;;;;;5023852;28;20491;-73
2022/12/23 05:50:36;;;;;;;12.03;6.33;;;10.50;99.90;;;;;;5026648;28;20439;-73
2022/12/23 05:53:23;;;;;;;14.00;6.60;;;10.60;99.90;;;;;;5035737;28;20448;-73
2022/12/23 05:56:09;;;;;;;7.53;5.90;;;10.50;99.90;;;;;;5029873;28;20567;-73
2022/12/23 05:58:54;;;;;;;7.87;5.73;;;10.60;99.90;;;;;;5035050;28;20583;-73
2022/12/23 06:01:40;;;;;;;6.97;5.83;;;10.60;99.90;;;;;;5029816;28;20959;-73
2022/12/23 06:04:26;;;;;;;6.43;5.13;;;10.60;99.90;;;;;;5030041;28;20499;-73
2022/12/23 06:07:11;;;;;;;8.00;5.80;;;10.60;99.90;;;;;;5028861;28;20554;-73
2022/12/23 06:09:58;;;;;;;10.70;5.93;;;10.60;99.90;;;;;;5029356;28;20528;-73
2022/12/23 06:12:44;;;;;;;7.00;5.47;;;10.60;99.90;;;;;;5027697;28;20464;-73
2022/12/23 06:15:29;;;;;;;8.87;5.40;;;10.60;99.90;;;;;;5026207;28;20472;-73
2022/12/23 06:18:15;;;;;;;5.47;4.40;;;10.70;99.90;;;;;;5035126;28;20437;-73
2022/12/23 06:21:01;;;;;;;10.30;5.60;;;10.70;99.90;;;;;;5023255;28;20441;-73
2022/12/23 06:23:47;;;;;;;6.77;5.30;;;10.70;99.90;;;;;;5034919;28;20429;-73
2022/12/23 06:26:34;;;;;;;7.63;4.40;;;10.70;99.90;;;;;;5029643;28;20483;-74
2022/12/23 06:29:21;;;;;;;7.73;4.70;;;10.70;99.90;;;;;;5029207;28;20491;-73
2022/12/23 06:32:06;;;;;;;6.67;5.00;;;10.70;99.90;;;;;;5033549;28;20424;-73
2022/12/23 06:34:52;;;;;;;7.73;4.00;;;10.70;99.90;;;;;;5028861;28;20476;-73
2022/12/23 06:37:38;;;;;;;6.50;3.97;;;10.80;99.90;;;;;;5036106;28;20428;-73
2022/12/23 06:40:23;;;;;;;4.00;2.90;;;10.80;99.90;;;;;;5027385;28;21131;-73
2022/12/23 06:43:12;;;;;;;2.93;2.30;;;10.80;99.90;;;;;;5036947;28;20895;-73
2022/12/23 06:45:57;;;;;;;3.73;2.60;;;10.90;99.90;;;;;;5039469;28;20468;-73
2022/12/23 06:48:43;;;;;;;9.03;2.20;;;10.90;99.90;;;;;;5035058;28;20448;-73
2022/12/23 06:51:29;;;;;;;3.80;1.97;;;11.00;99.90;;;;;;5029786;28;20922;-73
2022/12/23 06:54:14;;;;;;;1.83;1.50;;;11.00;99.90;;;;;;5039018;28;20451;-73
2022/12/23 06:57:00;;;;;;;3.57;2.30;;;11.10;99.90;;;;;;5026269;28;20456;-73
2022/12/23 06:59:47;;;;;;;4.00;2.40;;;11.10;99.90;;;;;;5022409;28;20443;-73
2022/12/23 07:02:33;;;;;;;9.43;7.83;;;11.10;99.90;;;;;;5030436;28;20453;-74
2022/12/23 07:05:19;;;;;;;6.07;5.47;;;11.10;99.90;;;;;;5040602;28;20625;-73
2022/12/23 07:08:05;;;;;;;6.67;6.07;;;11.20;99.90;;;;;;5023377;28;20471;-73
2022/12/23 07:10:50;;;;;;;4.20;3.57;;;11.20;99.90;;;;;;5029313;28;20440;-73
2022/12/23 07:13:36;;;;;;;4.50;2.33;;;11.10;99.90;;;;;;5036311;28;20439;-73
2022/12/23 07:16:23;;;;;;;7.53;3.73;;;11.20;99.90;;;;;;5034932;28;20468;-73
2022/12/23 07:19:09;;;;;;;8.33;4.43;;;11.10;99.90;;;;;;5017853;28;20818;-73
2022/12/23 07:21:54;;;;;;;4.57;4.10;;;11.10;99.90;;;;;;5034638;28;20448;-73
2022/12/23 07:24:40;;;;;;;5.77;4.60;;;11.10;99.90;;;;;;5034844;28;20929;-73
2022/12/23 07:27:26;;;;;;;8.63;6.40;;;11.10;99.90;;;;;;5035318;28;20477;-73
2022/12/23 07:30:12;;;;;;;8.90;6.33;;;11.10;99.90;;;;;;5029587;28;20452;-73
2022/12/23 07:32:59;;;;;;;9.10;7.33;;;11.10;99.90;;;;;;5035792;28;20631;-73
2022/12/23 07:35:45;;;;;;;8.80;6.73;;;11.00;99.90;;;;;;5031527;28;20571;-73
2022/12/23 07:38:30;;;;;;;9.47;6.20;;;11.00;99.90;;;;;;5027959;28;20441;-73
2022/12/23 07:41:16;;;;;;;8.23;6.20;;;11.00;99.90;;;;;;5035008;28;20464;-73
2022/12/23 07:44:02;;;;;;;8.20;4.33;;;11.00;99.90;;;;;;5029444;28;20444;-73
2022/12/23 07:46:48;;;;;;;10.30;2.87;;;11.00;99.90;;;;;;5026880;28;20508;-73
2022/12/23 07:49:35;;;;;;;3.60;2.83;;;11.00;99.90;;;;;;5030543;28;20980;-74
2022/12/23 07:52:21;;;;;;;10.40;3.17;;;11.00;99.90;;;;;;5032560;28;20452;-73
2022/12/23 07:55:07;;;;;;;6.77;3.37;;;11.00;99.90;;;;;;5029541;28;20522;-73
2022/12/23 07:57:53;;;;;;;3.00;2.70;;;10.90;99.90;;;;;;5031119;28;20444;-73
2022/12/23 08:00:39;;;;;;;4.97;3.50;;;11.00;99.90;;;;;;5033705;28;20448;-73
2022/12/23 08:03:25;;;;;;;6.57;2.93;;;11.00;99.90;;;;;;5026530;28;20447;-74
2022/12/23 08:06:14;;;;;;;3.30;2.47;;;11.00;99.90;;;;;;5030443;28;20472;-72
2022/12/23 08:08:59;;;;;;;6.87;2.60;;;11.00;99.90;;;;;;5026968;28;20889;-74
2022/12/23 08:11:45;;;;;;;4.40;2.60;;;11.00;99.90;;;;;;5031249;28;20428;-74
2022/12/23 08:14:30;;;;;;;4.73;3.43;;;11.00;99.90;;;;;;5025100;28;20546;-73
2022/12/23 08:17:16;;;;;;;3.50;2.83;;;11.10;99.90;;;;;;5027782;28;20799;-73
2022/12/23 08:20:02;;;;;;;3.97;3.23;;;11.20;99.90;;;;;;5034545;28;20498;-72
2022/12/23 08:22:49;;;;;;;4.63;3.40;;;11.20;99.90;;;;;;5030041;28;20523;-73
2022/12/23 08:25:34;;;;;;;6.17;2.50;;;11.20;99.90;;;;;;5030562;28;20558;-73
2022/12/23 08:28:20;;;;;;;3.27;2.37;;;11.20;99.90;;;;;;5023731;28;20487;-72
2022/12/23 08:31:07;;;;;;;10.33;3.40;;;11.10;99.90;;;;;;5019808;28;20578;-71
2022/12/23 08:33:55;;;;;;;3.87;2.93;;;11.10;99.90;;;;;;5028633;28;20463;-73
2022/12/23 08:36:40;;;;;;;5.23;2.90;;;11.20;99.90;;;;;;5030232;28;20514;-73
2022/12/23 08:39:27;;;;;;;5.40;3.30;;;11.20;99.90;;;;;;5029954;28;20456;-73
2022/12/23 08:42:13;;;;;;;8.00;4.93;;;11.30;99.90;;;;;;5028346;28;20822;-73
2022/12/23 08:44:59;;;;;;;5.90;4.23;;;11.40;99.90;;;;;;5029876;28;20471;-73
2022/12/23 08:47:45;;;;;;;4.53;3.70;;;11.30;99.90;;;;;;5023434;28;20993;-73
2022/12/23 08:50:31;;;;;;;9.63;6.40;;;11.30;99.90;;;;;;5031805;28;20533;-73
2022/12/23 08:53:16;;;;;;;12.93;7.00;;;11.30;99.90;;;;;;5029228;28;20424;-71
2022/12/23 08:56:04;;;;;;;11.00;4.30;;;11.30;99.90;;;;;;5024496;28;20595;-71
2022/12/23 08:58:52;;;;;;;7.70;4.87;;;11.20;99.90;;;;;;5031833;28;21057;-71
2022/12/23 09:01:37;;;;;;;9.23;4.60;;;11.30;99.90;;;;;;5026072;28;20527;-72
2022/12/23 09:04:22;;;;;;;15.97;9.70;;;11.30;99.90;;;;;;5031239;28;20538;-74
2022/12/23 09:07:08;;;;;;;13.90;8.60;;;11.40;99.90;;;;;;5024357;28;20495;-72
2022/12/23 09:09:54;;;;;;;19.97;11.53;;;11.50;99.90;;;;;;5030962;28;20578;-73
2022/12/23 09:12:41;;;;;;;6.07;3.67;;;11.50;99.90;;;;;;5030418;28;20503;-74
2022/12/23 09:15:27;;;;;;;5.20;3.40;;;11.50;99.90;;;;;;5029768;28;20977;-70
2022/12/23 09:18:12;;;;;;;5.03;3.30;;;11.60;99.90;;;;;;5025176;28;20436;-71
2022/12/23 09:20:59;;;;;;;5.00;3.10;;;11.60;99.90;;;;;;5025994;28;20495;-72
2022/12/23 09:23:44;;;;;;;3.60;2.80;;;11.60;99.90;;;;;;5026499;28;20533;-73
2022/12/23 09:26:31;;;;;;;3.33;2.30;;;11.70;99.90;;;;;;5026943;28;20477;-73
2022/12/23 09:29:18;;;;;;;5.03;2.63;;;11.60;99.90;;;;;;5023139;28;20440;-74
2022/12/23 09:32:03;;;;;;;4.40;2.27;;;11.70;99.90;;;;;;5026532;28;20451;-72
2022/12/23 09:34:49;;;;;;;4.07;2.40;;;11.70;99.90;;;;;;5028711;28;20791;-71
2022/12/23 09:37:35;;;;;;;7.53;2.30;;;11.70;99.90;;;;;;5025000;28;20490;-73
2022/12/23 09:40:22;;;;;;;4.87;2.70;;;11.70;99.90;;;;;;5026410;28;20490;-74
2022/12/23 09:43:19;;;;;;;8.07;2.77;;;11.60;99.90;;;;;;5024385;28;21005;-73
2022/12/23 09:46:12;;;;;;;6.73;3.73;;;11.60;99.90;;;;;;5024833;28;21009;-73
2022/12/23 09:49:02;;;;;;;4.33;3.60;;;11.60;99.90;;;;;;5023107;28;20562;-72
2022/12/23 09:51:52;;;;;;;5.53;3.27;;;11.60;99.90;;;;;;5025891;28;21141;-74
2022/12/23 09:54:44;;;;;;;8.10;5.60;;;11.50;99.90;;;;;;5027576;28;20518;-73
2022/12/23 09:57:37;;;;;;;3.00;2.43;;;11.50;99.90;;;;;;5029484;28;20451;-73
2022/12/23 10:00:23;;;;;;;4.13;2.50;;;11.50;99.90;;;;;;5037000;28;20448;-73
2022/12/23 10:03:20;;;;;;;3.37;2.60;;;11.50;99.90;;;;;;5029567;28;20432;-73
2022/12/23 10:06:11;;;;;;;2.80;2.40;;;11.50;99.90;;;;;;5024375;28;20464;-73
2022/12/23 10:09:01;;;;;;;9.47;2.93;;;11.50;99.90;;;;;;5040839;28;20472;-73
2022/12/23 10:11:50;;;;;;;6.43;2.70;;;11.50;99.90;;;;;;5035457;28;20479;-73
2022/12/23 10:14:37;;;;;;;7.37;3.13;;;11.50;99.90;;;;;;5039331;28;20974;-73
2022/12/23 10:17:28;;;;;;;4.63;2.50;;;11.50;99.90;;;;;;5031200;28;20448;-73
2022/12/23 10:20:19;;;;;;;7.43;2.70;;;11.50;99.90;;;;;;5025309;28;20453;-73
2022/12/23 10:23:10;;;;;;;4.00;2.60;;;11.60;99.90;;;;;;5029593;28;20551;-71
2022/12/23 10:25:56;;;;;;;5.47;3.17;;;11.60;99.90;;;;;;5025634;28;20487;-71
2022/12/23 10:28:41;;;;;;;8.40;3.53;;;11.60;99.90;;;;;;5034276;28;20479;-72
2022/12/23 10:31:38;;;;;;;4.90;2.90;;;11.60;99.90;;;;;;5034456;28;20444;-71
2022/12/23 10:34:30;;;;;;;12.00;4.27;;;11.60;99.90;;;;;;5029163;28;21017;-71
2022/12/23 10:37:25;;;;;;;4.97;3.23;;;11.60;99.90;;;;;;5028560;28;20460;-71
2022/12/23 10:40:17;;;;;;;10.47;3.70;;;11.50;99.90;;;;;;5038314;28;20582;-74
2022/12/23 10:43:15;;;;;;;7.20;3.33;;;11.50;99.90;;;;;;5032565;28;20444;-74
2022/12/23 10:46:09;;;;;;;7.40;4.00;;;11.60;99.90;;;;;;5022389;28;20819;-74
2022/12/23 10:49:03;;;;;;;5.57;3.53;;;11.60;99.90;;;;;;5034768;28;20471;-74
2022/12/23 10:51:53;;;;;;;5.80;2.90;;;11.70;99.90;;;;;;5042778;28;20428;-74
2022/12/23 10:54:42;;;;;;;3.50;3.10;;;11.60;99.90;;;;;;5034409;28;20820;-74
2022/12/23 10:57:29;;;;;;;5.47;2.93;;;11.70;99.90;;;;;;5036054;28;20452;-74
2022/12/23 11:00:20;;;;;;;5.73;3.00;;;11.80;99.90;;;;;;5022101;28;20946;-74
2022/12/23 11:03:15;;;;;;;9.20;4.10;;;11.80;99.90;;;;;;5027068;28;20453;-74
2022/12/23 11:06:02;;;;;;;10.10;4.70;;;11.80;99.90;;;;;;5021797;28;20453;-74
2022/12/23 11:08:47;;;;;;;7.83;4.60;;;11.80;99.90;;;;;;5024396;28;20541;-74
2022/12/23 11:11:54;;;;;;;6.00;4.50;;;11.70;99.90;;;;;;5026558;28;20449;-74
2022/12/23 11:14:41;;;;;;;10.23;4.50;;;11.70;99.90;;;;;;5020622;28;20970;-74
2022/12/23 11:17:30;;;;;;;6.40;2.90;;;11.70;99.90;;;;;;5026555;28;20429;-74
2022/12/23 11:20:18;;;;;;;5.00;2.53;;;11.70;99.90;;;;;;5017931;28;21402;-75
2022/12/23 11:23:06;;;;;;;6.27;3.23;;;11.70;99.90;;;;;;5023489;28;20507;-74
2022/12/23 11:26:00;;;;;;;8.10;2.73;;;11.80;99.90;;;;;;5024840;28;20596;-74
2022/12/23 11:28:51;;;;;;;4.50;3.60;;;11.80;99.90;;;;;;5027258;28;20977;-74
2022/12/23 11:31:36;;;;;;;3.70;2.63;;;11.90;99.90;;;;;;5023691;28;20518;-72
2022/12/23 11:34:25;;;;;;;4.43;3.27;;;11.90;99.90;;;;;;5032312;28;20455;-74
2022/12/23 11:37:24;;;;;;;3.30;2.40;;;11.90;99.90;;;;;;5030871;28;20946;-74
2022/12/23 11:40:28;;;;;;;4.40;3.27;;;11.90;99.90;;;;;;5027322;28;20845;-74
2022/12/23 11:43:16;;;;;;;8.33;2.60;;;12.00;99.90;;;;;;5039359;28;20431;-74
2022/12/23 11:46:18;;;;;;;5.03;1.90;;;11.90;99.90;;;;;;5027823;28;20468;-74
2022/12/23 11:49:15;;;;;;;3.70;2.10;;;12.00;99.90;;;;;;5030884;28;20518;-75
2022/12/23 11:52:13;;;;;;;3.43;2.63;;;12.00;99.90;;;;;;5026426;28;20877;-74
2022/12/23 11:55:04;;;;;;;3.30;2.53;;;12.00;99.90;;;;;;5033126;28;20468;-74
2022/12/23 11:57:51;;;;;;;4.60;2.33;;;12.00;99.90;;;;;;5038402;28;20428;-74
2022/12/23 12:00:41;;;;;;;3.23;2.47;;;12.10;99.90;;;;;;5029013;28;20499;-74
2022/12/23 12:03:32;;;;;;;5.93;3.10;;;12.10;99.90;;;;;;5036896;28;20941;-74
2022/12/23 12:06:20;;;;;;;7.87;2.87;;;12.20;99.90;;;;;;5025601;28;20465;-74
2022/12/23 12:09:06;;;;;;;4.03;2.80;;;12.10;99.90;;;;;;5032337;28;20464;-74
2022/12/23 12:11:56;;;;;;;3.00;2.43;;;12.10;99.90;;;;;;5023404;28;20478;-74
2022/12/23 12:14:44;;;;;;;3.70;3.20;;;12.10;99.90;;;;;;5036737;28;20514;-75
2022/12/23 12:17:36;;;;;;;6.70;2.93;;;12.00;99.90;;;;;;5035980;28;20490;-74
2022/12/23 12:20:29;;;;;;;3.97;3.40;;;12.10;99.90;;;;;;5026319;28;20535;-74
2022/12/23 12:23:19;;;;;;;3.80;2.40;;;12.00;99.90;;;;;;5029009;28;20483;-74
2022/12/23 12:26:11;;;;;;;4.67;2.73;;;12.00;99.90;;;;;;5029748;28;20448;-74
2022/12/23 12:29:02;;;;;;;5.53;3.73;;;12.00;99.90;;;;;;5033429;28;20468;-75
2022/12/23 12:31:50;;;;;;;4.50;3.30;;;12.00;99.90;;;;;;5029045;28;20479;-75
2022/12/23 12:34:43;;;;;;;4.70;3.13;;;12.10;99.90;;;;;;5035643;28;20494;-75
2022/12/23 12:37:38;;;;;;;6.50;2.87;;;12.10;99.90;;;;;;5029284;28;20464;-74
2022/12/23 12:40:30;;;;;;;5.30;2.90;;;12.10;99.90;;;;;;5034921;28;20573;-75
2022/12/23 12:43:24;;;;;;;2.83;2.53;;;12.10;99.90;;;;;;5036384;28;20391;-75
2022/12/23 12:46:20;;;;;;;3.90;2.90;;;12.20;99.90;;;;;;5028306;28;20460;-75
2022/12/23 12:49:15;;;;;;;3.40;2.60;;;12.20;99.90;;;;;;5024298;28;20536;-75
2022/12/23 12:52:07;;;;;;;2.73;2.10;;;12.20;99.90;;;;;;5028023;28;20496;-74
2022/12/23 12:54:58;;;;;;;4.80;2.57;;;12.30;99.90;;;;;;5028816;28;20607;-74
2022/12/23 12:57:44;;;;;;;3.90;2.37;;;12.30;99.90;;;;;;5025534;28;20448;-73
2022/12/23 13:00:51;;;;;;;10.70;5.30;;;12.30;99.90;;;;;;5028681;28;20440;-74
2022/12/23 13:04:15;;;;;;;6.03;2.63;;;12.40;99.90;;;;;;5024736;28;20511;-74
2022/12/23 13:07:08;;;;;;;2.93;1.50;;;12.40;99.90;;;;;;4978975;28;20918;-74
2022/12/23 13:10:03;;;;;;;2.30;0.97;;;12.40;99.90;;;;;;5029780;28;20479;-74
2022/12/23 13:12:57;;;;;;;1.67;1.13;;;12.40;99.90;;;;;;5031810;28;20456;-74
2022/12/23 13:15:48;;;;;;;1.47;1.00;;;12.40;99.90;;;;;;5025611;28;21045;-74
2022/12/23 13:18:41;;;;;;;1.10;0.63;;;12.40;99.90;;;;;;5028164;28;20449;-74
2022/12/23 13:21:33;;;;;;;1.10;0.60;;;12.40;99.90;;;;;;5040299;28;20502;-74
2022/12/23 13:24:26;;;;;;;1.30;0.70;;;12.40;99.90;;;;;;5034761;28;20594;-74
2022/12/23 13:27:16;;;;;;;1.80;1.07;;;12.50;99.90;;;;;;5024086;28;20832;-74
2022/12/23 13:30:06;;;;;;;1.50;1.10;;;12.50;99.90;;;;;;5040589;28;20812;-74
2022/12/23 13:33:06;;;;;;;2.03;1.17;;;12.50;99.90;;;;;;5031994;28;20451;-74
2022/12/23 13:36:11;;;;;;;3.33;0.73;;;12.60;99.90;;;;;;5027224;28;20693;-74
2022/12/23 13:39:11;;;;;;;2.70;1.40;;;12.60;99.90;;;;;;5033971;28;20414;-74
2022/12/23 13:42:01;;;;;;;3.33;1.57;;;12.60;99.90;;;;;;5036057;28;20452;-74
2022/12/23 13:44:48;;;;;;;1.70;0.90;;;12.60;99.90;;;;;;5032931;28;20494;-73
2022/12/23 13:47:47;;;;;;;1.47;0.80;;;12.60;99.90;;;;;;5031463;28;20463;-74
2022/12/23 13:50:41;;;;;;;1.67;1.20;;;12.70;99.90;;;;;;5039007;28;20413;-73
2022/12/23 13:53:39;;;;;;;3.20;1.60;;;12.70;99.90;;;;;;5037810;28;20433;-74
2022/12/23 13:56:29;;;;;;;4.10;1.50;;;12.70;99.90;;;;;;5039600;22;21023;-74
2022/12/23 13:59:16;;;;;;;3.47;2.30;;;12.70;99.90;;;;;;5032145;28;20444;-74
2022/12/23 14:02:03;;;;;;;1.37;0.73;;;12.80;99.90;;;;;;5033341;28;20511;-75
2022/12/23 14:04:58;;;;;;;3.00;1.03;;;12.80;99.90;;;;;;5023857;28;20470;-71
2022/12/23 14:07:45;;;;;;;1.70;1.20;;;12.80;99.90;;;;;;5010899;28;20918;-71
2022/12/23 14:10:31;;;;;;;1.60;1.00;;;12.80;99.90;;;;;;5007133;28;20451;-71
2022/12/23 14:13:18;;;;;;;1.53;0.80;;;12.80;99.90;;;;;;5013055;28;20953;-72
2022/12/23 14:16:26;;;;;;;1.50;0.80;;;12.80;99.90;;;;;;5011401;28;20611;-71
2022/12/23 14:19:41;;;;;;;1.30;0.90;;;12.80;99.90;;;;;;5008999;28;20807;-71
2022/12/23 14:22:40;;;;;;;1.87;1.10;;;12.90;99.90;;;;;;5014243;28;20866;-72
2022/12/23 14:26:04;;;;;;;2.03;1.03;;;12.90;99.90;;;;;;5013609;28;20560;-72
2022/12/23 14:29:02;;;;;;;1.60;1.20;;;12.90;99.90;;;;;;5007190;28;20484;-72
2022/12/23 14:31:56;;;;;;;1.67;1.30;;;12.90;99.90;;;;;;5013911;28;21021;-72
2022/12/23 14:35:15;;;;;;;4.30;1.47;;;12.90;99.90;;;;;;5019933;28;20499;-72
2022/12/23 14:38:29;;;;;;;2.03;1.30;;;12.90;99.90;;;;;;5012644;28;20958;-72
2022/12/23 14:41:36;;;;;;;2.17;1.50;;;12.90;99.90;;;;;;5011647;28;20448;-72
2022/12/23 14:44:44;;;;;;;2.30;1.50;;;13.00;99.90;;;;;;5020335;28;20428;-71
2022/12/23 14:47:34;;;;;;;2.73;2.00;;;12.90;99.90;;;;;;5015158;28;20448;-72
2022/12/23 14:50:41;;;;;;;2.60;1.40;;;13.00;99.90;;;;;;5011960;28;20491;-70
2022/12/23 14:53:28;;;;;;;2.77;1.80;;;13.00;99.90;;;;;;5013764;28;20577;-71
2022/12/23 14:56:22;;;;;;;3.70;2.10;;;13.00;99.90;;;;;;5013134;28;20455;-72
2022/12/23 14:59:16;;;;;;;2.43;2.23;;;13.10;99.90;;;;;;5002734;28;20446;-73
2022/12/23 15:02:04;;;;;;;7.40;5.17;;;13.10;99.90;;;;;;5012072;28;20845;-72
2022/12/23 15:04:53;;;;;;;2.97;2.00;;;13.10;99.90;;;;;;5009106;28;20445;-72
2022/12/23 15:07:42;;;;;;;3.10;2.07;;;13.00;99.90;;;;;;5012268;28;20860;-73
2022/12/23 15:10:29;;;;;;;2.73;2.50;;;13.00;99.90;;;;;;5012367;28;20476;-74
2022/12/23 15:13:17;;;;;;;3.33;2.50;;;13.00;99.90;;;;;;5016715;28;20440;-73